^^
Station Historical Data
Daily Summary for January 28, 2017 Units:  English    Metric   Both
« Previous Day
Next Day »
Daily Weekly Monthly Yearly Custom
  High: Low: Average:
Temperature: 36.0 °F 30.8 °F 33.1 °F
Dew Point: 28.4 °F 21.0 °F 24 °F
Humidity: 79 % 59 % 69 %
Wind Speed: 13.1 mph 0.0 mph 4.6 mph
Wind Gust: 20.7 mph - -
Wind:- - WSW
Pressure: 29.77 in 29.70 in -
Precipitation: 0.00 in    
Historical Graphs
 
 
Tabular Data for January 28, 2017
Time Temperature Dew Point Pressure Wind Wind Speed Wind Gust Humidity Rainfall Rate (Hourly) solar Conditions
00:03 32.4 °F 21.2 °F 29.72 in WSW 3.9 mph 13.8 mph 63 % 0.00 in 0.0 W/m2 CLR
00:08 32.4 °F 21.6 °F 29.72 in West 9.8 mph 13.8 mph 64 % 0.00 in 0.0 W/m2 CLR
00:13 32.3 °F 21.5 °F 29.72 in West 8.9 mph 11.5 mph 64 % 0.00 in 0.0 W/m2 CLR
00:28 32.1 °F 21.3 °F 29.71 in West 3.3 mph 6.9 mph 64 % 0.00 in 0.0 W/m2 CLR
00:33 31.9 °F 21.1 °F 29.71 in West 4.2 mph 6.9 mph 64 % 0.00 in 0.0 W/m2 CLR
00:38 31.8 °F 21.0 °F 29.71 in WSW 5.4 mph 10.4 mph 64 % 0.00 in 0.0 W/m2 CLR
00:43 31.7 °F 21.3 °F 29.71 in West 4.0 mph 8.1 mph 65 % 0.00 in 0.0 W/m2 CLR
00:48 31.7 °F 21.3 °F 29.71 in West 4.1 mph 8.0 mph 65 % 0.00 in 0.0 W/m2 CLR
00:53 31.6 °F 21.2 °F 29.71 in West 6.3 mph 8.1 mph 65 % 0.00 in 0.0 W/m2 CLR
00:58 31.5 °F 21.1 °F 29.71 in West 5.9 mph 12.0 mph 65 % 0.00 in 0.0 W/m2 CLR
01:03 31.5 °F 21.1 °F 29.71 in WSW 3.6 mph 8.1 mph 65 % 0.00 in 0.0 W/m2 CLR
01:08 31.4 °F 21.0 °F 29.70 in WSW 3.1 mph 8.1 mph 65 % 0.00 in 0.0 W/m2 CLR
01:13 31.3 °F 21.3 °F 29.70 in West 4.6 mph 8.1 mph 66 % 0.00 in 0.0 W/m2 CLR
01:18 31.3 °F 21.3 °F 29.70 in West 5.9 mph 9.2 mph 66 % 0.00 in 0.0 W/m2 CLR
01:23 31.3 °F 21.3 °F 29.70 in West 6.6 mph 11.5 mph 66 % 0.00 in 0.0 W/m2 CLR
01:28 31.3 °F 21.3 °F 29.70 in West 6.2 mph 9.2 mph 66 % 0.00 in 0.0 W/m2 CLR
01:33 31.2 °F 21.2 °F 29.70 in West 2.3 mph 8.1 mph 66 % 0.00 in 0.0 W/m2 CLR
01:38 31.1 °F 21.4 °F 29.71 in WNW 4.1 mph 8.1 mph 67 % 0.00 in 0.0 W/m2 CLR
01:43 31.0 °F 21.3 °F 29.71 in West 4.4 mph 6.9 mph 67 % 0.00 in 0.0 W/m2 CLR
01:48 30.9 °F 21.2 °F 29.71 in West 2.1 mph 3.5 mph 67 % 0.00 in 0.0 W/m2 CLR
01:53 30.8 °F 21.1 °F 29.71 in West 3.7 mph 4.0 mph 67 % 0.00 in 0.0 W/m2 CLR
01:58 30.8 °F 21.5 °F 29.71 in West 4.1 mph 9.2 mph 68 % 0.00 in 0.0 W/m2 CLR
02:03 30.9 °F 21.6 °F 29.71 in West 4.8 mph 8.1 mph 68 % 0.00 in 0.0 W/m2 CLR
02:08 31.1 °F 21.8 °F 29.71 in West 5.0 mph 10.0 mph 68 % 0.00 in 0.0 W/m2 CLR
02:13 31.4 °F 22.1 °F 29.71 in West 4.3 mph 11.5 mph 68 % 0.00 in 0.0 W/m2 CLR
02:19 31.7 °F 22.0 °F 29.71 in WNW 6.3 mph 11.5 mph 67 % 0.00 in 0.0 W/m2 CLR
02:24 32.1 °F 22.4 °F 29.70 in WSW 4.9 mph 11.5 mph 67 % 0.00 in 0.0 W/m2 CLR
02:29 32.3 °F 22.2 °F 29.71 in West 4.1 mph 11.5 mph 66 % 0.00 in 0.0 W/m2 CLR
02:34 32.5 °F 22.4 °F 29.71 in WSW 7.7 mph 16.1 mph 66 % 0.00 in 0.0 W/m2 CLR
02:39 32.6 °F 22.1 °F 29.71 in WSW 3.9 mph 9.0 mph 65 % 0.00 in 0.0 W/m2 CLR
02:44 32.7 °F 22.2 °F 29.71 in West 8.9 mph 11.5 mph 65 % 0.00 in 0.0 W/m2 CLR
02:49 32.7 °F 22.2 °F 29.71 in West 4.5 mph 12.7 mph 65 % 0.00 in 0.0 W/m2 CLR
02:54 32.7 °F 21.9 °F 29.71 in WSW 6.0 mph 9.2 mph 64 % 0.00 in 0.0 W/m2 CLR
02:59 32.6 °F 22.1 °F 29.71 in West 6.7 mph 11.5 mph 65 % 0.00 in 0.0 W/m2 CLR
03:04 32.5 °F 21.7 °F 29.71 in West 6.0 mph 9.2 mph 64 % 0.00 in 0.0 W/m2 CLR
03:09 32.4 °F 21.6 °F 29.71 in WSW 8.5 mph 19.6 mph 64 % 0.00 in 0.0 W/m2 CLR
03:14 32.4 °F 21.9 °F 29.71 in West 4.3 mph 10.4 mph 65 % 0.00 in 0.0 W/m2 CLR
03:19 32.2 °F 21.7 °F 29.71 in WSW 5.3 mph 11.5 mph 65 % 0.00 in 0.0 W/m2 CLR
03:24 32.0 °F 21.6 °F 29.71 in WSW 4.6 mph 6.9 mph 65 % 0.00 in 0.0 W/m2 CLR
03:29 31.8 °F 21.7 °F 29.71 in West 4.4 mph 6.0 mph 66 % 0.00 in 0.0 W/m2 CLR
03:34 31.8 °F 21.7 °F 29.70 in West 6.4 mph 12.0 mph 66 % 0.00 in 0.0 W/m2 CLR
03:39 31.7 °F 21.6 °F 29.71 in WSW 4.3 mph 7.0 mph 66 % 0.00 in 0.0 W/m2 CLR
03:44 31.6 °F 21.9 °F 29.71 in West 4.6 mph 10.4 mph 67 % 0.00 in 0.0 W/m2 CLR
03:49 31.6 °F 21.9 °F 29.70 in SW 4.4 mph 9.2 mph 67 % 0.00 in 0.0 W/m2 CLR
03:54 31.6 °F 21.9 °F 29.70 in West 3.3 mph 5.8 mph 67 % 0.00 in 0.0 W/m2 CLR
03:59 31.5 °F 22.1 °F 29.70 in West 3.6 mph 7.0 mph 68 % 0.00 in 0.0 W/m2 CLR
04:04 31.4 °F 22.1 °F 29.70 in WSW 4.6 mph 9.2 mph 68 % 0.00 in 0.0 W/m2 CLR
04:09 31.4 °F 22.4 °F 29.70 in West 3.5 mph 8.0 mph 69 % 0.00 in 0.0 W/m2 CLR
04:14 31.4 °F 22.4 °F 29.70 in West 5.8 mph 10.4 mph 69 % 0.00 in 0.0 W/m2 CLR
04:19 31.5 °F 22.5 °F 29.70 in WSW 8.1 mph 11.5 mph 69 % 0.00 in 0.0 W/m2 CLR
04:24 31.6 °F 22.6 °F 29.70 in West 4.9 mph 6.9 mph 69 % 0.00 in 0.0 W/m2 CLR
04:34 31.6 °F 22.9 °F 29.71 in West 4.7 mph 6.9 mph 70 % 0.00 in 0.0 W/m2 CLR
04:44 31.7 °F 23.0 °F 29.71 in WSW 3.2 mph 4.6 mph 70 % 0.00 in 0.0 W/m2 CLR
04:49 31.8 °F 23.1 °F 29.70 in West 6.7 mph 10.4 mph 70 % 0.00 in 0.0 W/m2 CLR
04:54 32.0 °F 23.3 °F 29.70 in WSW 2.6 mph 6.0 mph 70 % 0.00 in 0.0 W/m2 CLR
04:59 32.1 °F 23.4 °F 29.70 in WSW 1.1 mph 3.5 mph 70 % 0.00 in 0.0 W/m2 CLR
05:04 32.1 °F 23.4 °F 29.70 in West 2.3 mph 3.5 mph 70 % 0.00 in 0.0 W/m2 CLR
05:09 32.1 °F 23.4 °F 29.70 in WSW 5.2 mph 10.0 mph 70 % 0.00 in 0.0 W/m2 CLR
05:14 32.1 °F 23.4 °F 29.70 in WSW 3.9 mph 9.2 mph 70 % 0.00 in 0.0 W/m2 CLR
05:24 32.1 °F 23.4 °F 29.71 in West 3.3 mph 4.6 mph 70 % 0.00 in 0.0 W/m2 CLR
05:29 32.1 °F 23.4 °F 29.71 in WSW 3.7 mph 8.1 mph 70 % 0.00 in 0.0 W/m2 CLR
05:34 32.0 °F 23.3 °F 29.71 in West 0.9 mph 3.5 mph 70 % 0.00 in 0.0 W/m2 CLR
05:39 31.8 °F 23.5 °F 29.71 in WSW 4.5 mph 8.1 mph 71 % 0.00 in 0.0 W/m2 CLR
05:44 31.8 °F 23.5 °F 29.71 in West 3.9 mph 8.1 mph 71 % 0.00 in 0.0 W/m2 CLR
05:49 31.7 °F 23.7 °F 29.71 in WSW 5.0 mph 9.2 mph 72 % 0.00 in 0.0 W/m2 CLR
05:54 31.7 °F 23.7 °F 29.71 in WSW 5.1 mph 8.1 mph 72 % 0.00 in 0.0 W/m2 CLR
05:59 31.6 °F 23.6 °F 29.71 in WSW 6.6 mph 10.4 mph 72 % 0.00 in 0.0 W/m2 CLR
06:04 31.7 °F 24.0 °F 29.72 in West 3.9 mph 8.1 mph 73 % 0.00 in 0.0 W/m2 CLR
06:09 31.7 °F 24.0 °F 29.72 in WSW 5.9 mph 12.7 mph 73 % 0.00 in 0.0 W/m2 CLR
06:14 31.7 °F 24.0 °F 29.72 in West 3.8 mph 6.9 mph 73 % 0.00 in 0.0 W/m2 CLR
06:19 31.7 °F 24.0 °F 29.72 in West 7.9 mph 11.5 mph 73 % 0.00 in 0.0 W/m2 CLR
06:24 31.6 °F 23.9 °F 29.72 in WSW 4.6 mph 5.8 mph 73 % 0.00 in 0.0 W/m2 CLR
06:29 31.5 °F 24.2 °F 29.72 in WSW 6.8 mph 11.0 mph 74 % 0.00 in 0.0 W/m2 CLR
06:34 31.4 °F 24.1 °F 29.72 in WSW 3.8 mph 10.4 mph 74 % 0.00 in 0.0 W/m2 CLR
06:39 31.3 °F 24.0 °F 29.72 in WSW 4.8 mph 8.0 mph 74 % 0.00 in 0.0 W/m2 CLR
06:44 31.3 °F 24.0 °F 29.72 in West 6.0 mph 8.1 mph 74 % 0.00 in 0.0 W/m2 CLR
06:50 31.3 °F 24.3 °F 29.72 in SW 7.5 mph 11.5 mph 75 % 0.00 in 0.0 W/m2 CLR
06:55 31.3 °F 24.3 °F 29.73 in West 5.0 mph 8.0 mph 75 % 0.00 in 0.0 W/m2 CLR
07:00 31.3 °F 24.3 °F 29.73 in SW 4.0 mph 4.6 mph 75 % 0.00 in 0.0 W/m2 CLR
07:05 31.3 °F 24.3 °F 29.73 in WSW 4.6 mph 9.2 mph 75 % 0.00 in 0.0 W/m2 OVC
07:10 31.4 °F 24.4 °F 29.73 in SW 3.7 mph 6.9 mph 75 % 0.00 in 0.0 W/m2 OVC
07:15 31.4 °F 24.4 °F 29.73 in WSW 3.3 mph 5.8 mph 75 % 0.00 in 0.0 W/m2 OVC
07:20 31.5 °F 24.5 °F 29.73 in West 4.8 mph 9.2 mph 75 % 0.00 in 5.0 W/m2 OVC
07:25 31.6 °F 24.6 °F 29.73 in WSW 3.8 mph 8.1 mph 75 % 0.00 in 9.0 W/m2 OVC
07:30 31.6 °F 24.6 °F 29.73 in WSW 4.6 mph 8.1 mph 75 % 0.00 in 11.0 W/m2 OVC
07:35 31.7 °F 24.7 °F 29.73 in WSW 7.8 mph 7.8 mph 75 % 0.00 in 16.0 W/m2 CLR
07:40 31.7 °F 24.7 °F 29.73 in West 4.4 mph 6.9 mph 75 % 0.00 in 21.0 W/m2 CLR
07:45 31.8 °F 25.1 °F 29.73 in WSW 4.0 mph 8.1 mph 76 % 0.00 in 28.0 W/m2 CLR
07:50 31.9 °F 25.2 °F 29.73 in WSW 5.2 mph 8.1 mph 76 % 0.00 in 33.0 W/m2 CLR
07:55 32.0 °F 25.3 °F 29.73 in WSW 3.4 mph 10.4 mph 76 % 0.00 in 39.0 W/m2 CLR
08:00 32.1 °F 25.1 °F 29.74 in SW 8.2 mph 11.5 mph 75 % 0.00 in 44.0 W/m2 CLR
08:05 32.2 °F 25.2 °F 29.74 in WSW 3.7 mph 5.8 mph 75 % 0.00 in 53.0 W/m2 CLR
08:10 32.2 °F 25.2 °F 29.74 in WSW 3.3 mph 5.8 mph 75 % 0.00 in 53.0 W/m2 FEW
08:15 32.3 °F 25.3 °F 29.74 in West 6.4 mph 10.0 mph 75 % 0.00 in 58.0 W/m2 FEW
08:20 32.4 °F 25.4 °F 29.74 in WSW 4.5 mph 5.8 mph 75 % 0.00 in 63.0 W/m2 FEW
08:25 32.5 °F 25.5 °F 29.74 in SW 4.1 mph 9.2 mph 75 % 0.00 in 70.0 W/m2 FEW
08:30 32.5 °F 25.5 °F 29.74 in SW 7.8 mph 11.5 mph 75 % 0.00 in 69.0 W/m2 SCT
08:35 32.6 °F 25.6 °F 29.74 in West 7.9 mph 11.5 mph 75 % 0.00 in 67.0 W/m2 SCT
08:40 32.6 °F 25.6 °F 29.74 in WSW 6.9 mph 11.5 mph 75 % 0.00 in 58.0 W/m2 BKN
08:45 32.6 °F 25.6 °F 29.74 in SW 8.4 mph 10.4 mph 75 % 0.00 in 56.0 W/m2 BKN
08:50 32.7 °F 25.6 °F 29.74 in SW 6.3 mph 8.1 mph 75 % 0.00 in 72.0 W/m2 BKN
08:55 32.7 °F 25.6 °F 29.74 in SW 6.3 mph 8.1 mph 75 % 0.00 in 90.0 W/m2 SCT
09:10 32.9 °F 25.8 °F 29.75 in WSW 9.1 mph 11.0 mph 75 % 0.00 in 121.0 W/m2 SCT
09:16 33.1 °F 26.0 °F 29.75 in WSW 5.9 mph 10.0 mph 75 % 0.00 in 142.0 W/m2 SCT
09:21 33.2 °F 26.1 °F 29.75 in WSW 6.3 mph 17.3 mph 75 % 0.00 in 125.0 W/m2 SCT
09:26 33.3 °F 26.2 °F 29.75 in SW 8.9 mph 12.7 mph 75 % 0.00 in 132.0 W/m2 SCT
09:31 33.3 °F 26.2 °F 29.75 in West 6.5 mph 10.4 mph 75 % 0.00 in 134.0 W/m2 SCT
09:36 33.4 °F 26.3 °F 29.75 in WSW 7.3 mph 12.7 mph 75 % 0.00 in 148.0 W/m2 SCT
09:41 33.5 °F 26.4 °F 29.75 in West 8.9 mph 11.5 mph 75 % 0.00 in 160.0 W/m2 SCT
09:46 33.5 °F 26.4 °F 29.75 in WSW 7.4 mph 11.5 mph 75 % 0.00 in 153.0 W/m2 SCT
09:51 33.6 °F 26.5 °F 29.75 in SW 7.3 mph 10.4 mph 75 % 0.00 in 160.0 W/m2 SCT
09:56 33.6 °F 26.5 °F 29.75 in WSW 8.8 mph 12.7 mph 75 % 0.00 in 167.0 W/m2 SCT
10:01 33.6 °F 26.5 °F 29.75 in WSW 6.6 mph 13.8 mph 75 % 0.00 in 142.0 W/m2 BKN
10:06 33.7 °F 26.6 °F 29.75 in WSW 6.1 mph 9.2 mph 75 % 0.00 in 146.0 W/m2 BKN
10:11 33.9 °F 26.8 °F 29.76 in WSW 3.7 mph 11.5 mph 75 % 0.00 in 128.0 W/m2 BKN
10:16 33.8 °F 26.7 °F 29.76 in SW 6.8 mph 9.2 mph 75 % 0.00 in 118.0 W/m2 BKN
10:21 33.6 °F 26.8 °F 29.76 in WSW 8.4 mph 11.5 mph 76 % 0.00 in 146.0 W/m2 BKN
10:26 33.5 °F 26.7 °F 29.76 in WSW 8.3 mph 15.0 mph 76 % 0.00 in 134.0 W/m2 BKN
10:31 33.5 °F 27.1 °F 29.76 in SW 4.1 mph 6.0 mph 77 % 0.00 in 156.0 W/m2 BKN
10:36 33.4 °F 27.3 °F 29.76 in WSW 10.6 mph 13.8 mph 78 % 0.00 in 155.0 W/m2 BKN
10:41 33.4 °F 27.3 °F 29.76 in SW 6.0 mph 9.2 mph 78 % 0.00 in 151.0 W/m2 BKN
10:46 33.4 °F 27.3 °F 29.75 in WSW 7.5 mph 11.0 mph 78 % 0.00 in 176.0 W/m2 BKN
10:51 33.3 °F 27.2 °F 29.75 in SW 9.6 mph 11.5 mph 78 % 0.00 in 223.0 W/m2 SCT
10:56 33.5 °F 27.7 °F 29.75 in SW 8.2 mph 11.5 mph 79 % 0.00 in 202.0 W/m2 BKN
11:01 33.5 °F 27.7 °F 29.75 in WSW 6.9 mph 10.0 mph 79 % 0.00 in 230.0 W/m2 SCT
11:06 33.6 °F 27.8 °F 29.75 in SSW 7.7 mph 15.0 mph 79 % 0.00 in 272.0 W/m2 SCT
11:08 33.6 °F 27.8 °F 29.75 in WSW 7.8 mph 12.7 mph 79 % 0.00 in 274.0 W/m2 SCT
11:13 34.1 °F 28.3 °F 29.75 in WSW 9.4 mph 11.5 mph 79 % 0.00 in 271.0 W/m2 FEW
11:18 34.2 °F 28.4 °F 29.75 in WSW 8.9 mph 12.0 mph 79 % 0.00 in 278.0 W/m2 SCT
11:23 34.1 °F 28.0 °F 29.75 in WSW 4.4 mph 16.1 mph 78 % 0.00 in 244.0 W/m2 SCT
11:28 34.3 °F 28.2 °F 29.74 in SW 8.9 mph 11.5 mph 78 % 0.00 in 283.0 W/m2 SCT
11:29 34.3 °F 28.2 °F 29.74 in WSW 4.3 mph 11.5 mph 78 % 0.00 in 276.0 W/m2 SCT
11:34 34.5 °F 28.3 °F 29.74 in SSW 8.9 mph 13.8 mph 78 % 0.00 in 258.0 W/m2 SCT
11:43 34.1 °F 27.6 °F 29.74 in SSW 10.5 mph 15.0 mph 77 % 0.00 in 251.0 W/m2 SCT
11:48 34.1 °F 27.6 °F 29.74 in West 4.5 mph 12.7 mph 77 % 0.00 in 299.0 W/m2 SCT
11:53 34.5 °F 28.0 °F 29.74 in SW 7.5 mph 9.0 mph 77 % 0.00 in 322.0 W/m2 FEW
11:58 34.6 °F 27.5 °F 29.73 in SW 7.6 mph 8.1 mph 75 % 0.00 in 236.0 W/m2 SCT
12:03 34.6 °F 27.5 °F 29.73 in WSW 9.3 mph 17.3 mph 75 % 0.00 in 234.0 W/m2 SCT
12:08 34.5 °F 27.1 °F 29.73 in WSW 11.8 mph 13.0 mph 74 % 0.00 in 199.0 W/m2 SCT
12:13 34.4 °F 26.6 °F 29.73 in SW 11.0 mph 16.1 mph 73 % 0.00 in 230.0 W/m2 SCT
12:18 34.5 °F 26.7 °F 29.73 in WSW 7.5 mph 11.5 mph 73 % 0.00 in 276.0 W/m2 SCT
12:23 34.9 °F 27.1 °F 29.73 in SW 4.2 mph 10.0 mph 73 % 0.00 in 230.0 W/m2 SCT
12:28 34.9 °F 26.8 °F 29.72 in WSW 9.3 mph 15.0 mph 72 % 0.00 in 236.0 W/m2 SCT
12:33 35.0 °F 26.5 °F 29.72 in SW 10.0 mph 15.0 mph 71 % 0.00 in 225.0 W/m2 SCT
12:38 34.8 °F 26.0 °F 29.72 in West 7.1 mph 11.5 mph 70 % 0.00 in 171.0 W/m2 BKN
12:43 34.7 °F 25.6 °F 29.72 in WSW 10.0 mph 18.4 mph 69 % 0.00 in 193.0 W/m2 BKN
12:48 34.8 °F 25.3 °F 29.72 in WNW 12.6 mph 20.7 mph 68 % 0.00 in 271.0 W/m2 SCT
12:53 34.9 °F 25.0 °F 29.71 in WSW 9.8 mph 17.3 mph 67 % 0.00 in 290.0 W/m2 SCT
12:58 35.3 °F 25.1 °F 29.71 in WSW 8.5 mph 12.7 mph 66 % 0.00 in 229.0 W/m2 SCT
13:03 35.2 °F 24.6 °F 29.71 in West 9.2 mph 11.5 mph 65 % 0.00 in 243.0 W/m2 BKN
13:08 35.4 °F 24.8 °F 29.71 in West 4.5 mph 8.1 mph 65 % 0.00 in 183.0 W/m2 BKN
13:13 35.6 °F 24.6 °F 29.71 in WSW 10.9 mph 16.1 mph 64 % 0.00 in 158.0 W/m2 BKN
13:18 35.5 °F 24.1 °F 29.70 in WSW 11.4 mph 18.4 mph 63 % 0.00 in 139.0 W/m2 BKN
13:28 35.7 °F 23.9 °F 29.71 in West 11.2 mph 18.4 mph 62 % 0.00 in 128.0 W/m2 BKN
13:33 35.7 °F 23.2 °F 29.71 in West 11.2 mph 15.0 mph 60 % 0.00 in 114.0 W/m2 BKN
13:38 35.5 °F 23.0 °F 29.71 in SW 6.8 mph 12.7 mph 60 % 0.00 in 127.0 W/m2 BKN
13:43 35.4 °F 23.3 °F 29.71 in SW 5.2 mph 10.4 mph 61 % 0.00 in 128.0 W/m2 BKN
13:48 35.5 °F 23.0 °F 29.71 in WSW 8.5 mph 12.7 mph 60 % 0.00 in 97.0 W/m2 OVC
13:53 35.3 °F 22.8 °F 29.71 in West 11.9 mph 17.3 mph 60 % 0.00 in 84.0 W/m2 OVC
13:58 35.3 °F 22.8 °F 29.71 in WNW 7.9 mph 13.8 mph 60 % 0.00 in 91.0 W/m2 OVC
14:03 35.3 °F 22.8 °F 29.71 in West 7.4 mph 13.8 mph 60 % 0.00 in 111.0 W/m2 BKN
14:08 35.4 °F 22.9 °F 29.71 in West 5.2 mph 10.4 mph 60 % 0.00 in 116.0 W/m2 BKN
14:13 35.6 °F 22.7 °F 29.71 in West 8.4 mph 11.5 mph 59 % 0.00 in 100.0 W/m2 BKN
14:18 35.5 °F 22.6 °F 29.71 in WSW 9.0 mph 12.7 mph 59 % 0.00 in 84.0 W/m2 OVC
14:23 35.5 °F 22.6 °F 29.71 in SW 10.3 mph 16.1 mph 59 % 0.00 in 77.0 W/m2 OVC
14:28 35.3 °F 22.4 °F 29.71 in West 13.1 mph 18.4 mph 59 % 0.00 in 93.0 W/m2 OVC
14:33 35.3 °F 22.8 °F 29.71 in WSW 5.9 mph 12.7 mph 60 % 0.00 in 114.0 W/m2 BKN
14:38 35.3 °F 22.8 °F 29.71 in West 9.8 mph 11.5 mph 60 % 0.00 in 116.0 W/m2 BKN
14:43 35.3 °F 22.8 °F 29.71 in West 10.2 mph 13.8 mph 60 % 0.00 in 113.0 W/m2 BKN
14:48 35.4 °F 22.9 °F 29.72 in WSW 6.6 mph 11.5 mph 60 % 0.00 in 102.0 W/m2 BKN
14:53 35.6 °F 23.1 °F 29.72 in WSW 9.8 mph 15.0 mph 60 % 0.00 in 93.0 W/m2 BKN
14:58 35.6 °F 23.1 °F 29.72 in WSW 6.4 mph 11.5 mph 60 % 0.00 in 97.0 W/m2 BKN
15:03 35.6 °F 23.1 °F 29.72 in SW 8.6 mph 12.7 mph 60 % 0.00 in 104.0 W/m2 BKN
15:08 35.6 °F 23.1 °F 29.72 in West 6.2 mph 9.2 mph 60 % 0.00 in 114.0 W/m2 BKN
15:13 35.6 °F 23.1 °F 29.72 in West 7.1 mph 10.4 mph 60 % 0.00 in 116.0 W/m2 BKN
15:23 35.8 °F 23.3 °F 29.72 in West 6.7 mph 11.5 mph 60 % 0.00 in 76.0 W/m2 BKN
15:33 35.7 °F 23.2 °F 29.72 in West 6.7 mph 9.2 mph 60 % 0.00 in 60.0 W/m2 BKN
15:38 35.6 °F 23.1 °F 29.72 in WSW 7.5 mph 10.4 mph 60 % 0.00 in 49.0 W/m2 OVC
15:43 35.5 °F 23.4 °F 29.72 in West 4.3 mph 8.1 mph 61 % 0.00 in 74.0 W/m2 BKN
15:48 35.6 °F 23.5 °F 29.72 in West 4.5 mph 10.4 mph 61 % 0.00 in 69.0 W/m2 BKN
15:59 35.6 °F 23.5 °F 29.72 in West 6.5 mph 9.2 mph 61 % 0.00 in 49.0 W/m2 BKN
16:07 35.6 °F 23.5 °F 29.72 in West 7.2 mph 11.5 mph 61 % 0.00 in 40.0 W/m2 BKN
16:12 35.6 °F 23.5 °F 29.72 in West 4.3 mph 9.2 mph 61 % 0.00 in 33.0 W/m2 BKN
16:17 35.6 °F 23.5 °F 29.72 in West 6.8 mph 12.7 mph 61 % 0.00 in 35.0 W/m2 BKN
16:22 35.6 °F 23.5 °F 29.72 in West 2.8 mph 6.9 mph 61 % 0.00 in 67.0 W/m2 SCT
16:27 35.8 °F 23.7 °F 29.72 in WSW 6.6 mph 8.1 mph 61 % 0.00 in 69.0 W/m2 CLR
16:39 36.0 °F 23.4 °F 29.72 in West 9.1 mph 11.5 mph 60 % 0.00 in 32.0 W/m2 SCT
16:44 35.8 °F 23.3 °F 29.72 in West 7.8 mph 8.1 mph 60 % 0.00 in 28.0 W/m2 SCT
16:49 35.7 °F 23.6 °F 29.72 in SW 4.8 mph 6.0 mph 61 % 0.00 in 21.0 W/m2 SCT
16:54 35.6 °F 23.5 °F 29.72 in West 8.0 mph 10.0 mph 61 % 0.00 in 16.0 W/m2 SCT
16:59 35.5 °F 23.4 °F 29.72 in West 3.8 mph 5.8 mph 61 % 0.00 in 14.0 W/m2 FEW
17:04 35.4 °F 23.7 °F 29.72 in West 2.9 mph 6.9 mph 62 % 0.00 in 11.0 W/m2 CLR
17:09 35.2 °F 23.5 °F 29.72 in WSW 6.3 mph 9.2 mph 62 % 0.00 in 7.0 W/m2 CLR
17:14 35.0 °F 23.3 °F 29.72 in West 0.8 mph 3.5 mph 62 % 0.00 in 5.0 W/m2 OVC
17:19 34.8 °F 23.5 °F 29.72 in West 0.7 mph 2.3 mph 63 % 0.00 in 0.0 W/m2 OVC
17:24 34.6 °F 23.3 °F 29.73 in West 2.0 mph 3.5 mph 63 % 0.00 in 0.0 W/m2 OVC
17:29 34.5 °F 23.6 °F 29.72 in West 0.1 mph 1.2 mph 64 % 0.00 in 0.0 W/m2 OVC
17:34 34.4 °F 23.5 °F 29.72 in Calm     64 % 0.00 in 0.0 W/m2 OVC
17:39 34.3 °F 23.4 °F 29.72 in Calm     64 % 0.00 in 0.0 W/m2 OVC
17:44 34.0 °F 23.1 °F 29.73 in Calm     64 % 0.00 in 0.0 W/m2 OVC
17:49 33.9 °F 23.0 °F 29.73 in Calm     64 % 0.00 in 0.0 W/m2 CLR
17:54 33.8 °F 22.9 °F 29.73 in Calm     64 % 0.00 in 0.0 W/m2 CLR
17:59 33.7 °F 23.2 °F 29.74 in WNW 0.1 mph 1.2 mph 65 % 0.00 in 0.0 W/m2 CLR
18:04 33.7 °F 23.2 °F 29.74 in WNW 0.3 mph 1.2 mph 65 % 0.00 in 0.0 W/m2 CLR
18:14 33.8 °F 23.6 °F 29.75 in Calm     66 % 0.00 in 0.0 W/m2 CLR
18:19 33.7 °F 23.5 °F 29.76 in Calm     66 % 0.00 in 0.0 W/m2 CLR
18:29 33.8 °F 23.6 °F 29.76 in West 1.9 mph 3.5 mph 66 % 0.00 in 0.0 W/m2 CLR
18:34 33.7 °F 23.5 °F 29.76 in West 1.7 mph 2.3 mph 66 % 0.00 in 0.0 W/m2 CLR
18:39 33.7 °F 23.5 °F 29.76 in West 0.1 mph 1.2 mph 66 % 0.00 in 0.0 W/m2 CLR
18:44 33.6 °F 23.8 °F 29.76 in Calm     67 % 0.00 in 0.0 W/m2 CLR
18:49 33.6 °F 23.8 °F 29.76 in Calm     67 % 0.00 in 0.0 W/m2 CLR
18:54 33.6 °F 23.8 °F 29.76 in Calm     67 % 0.00 in 0.0 W/m2 CLR
18:59 33.5 °F 23.7 °F 29.76 in Calm     67 % 0.00 in 0.0 W/m2 CLR
19:04 33.5 °F 24.1 °F 29.76 in Calm     68 % 0.00 in 0.0 W/m2 CLR
19:09 33.5 °F 24.1 °F 29.76 in Calm     68 % 0.00 in 0.0 W/m2 CLR
19:14 33.4 °F 24.0 °F 29.76 in Calm     68 % 0.00 in 0.0 W/m2 CLR
19:19 33.5 °F 24.1 °F 29.76 in Calm     68 % 0.00 in 0.0 W/m2 CLR
19:24 33.5 °F 23.7 °F 29.76 in Calm     67 % 0.00 in 0.0 W/m2 CLR
19:29 33.3 °F 23.9 °F 29.76 in Calm     68 % 0.00 in 0.0 W/m2 CLR
19:34 33.2 °F 23.8 °F 29.76 in Calm     68 % 0.00 in 0.0 W/m2 CLR
19:39 33.1 °F 23.7 °F 29.75 in Calm     68 % 0.00 in 0.0 W/m2 CLR
19:44 33.0 °F 23.9 °F 29.76 in Calm     69 % 0.00 in 0.0 W/m2 CLR
19:49 32.9 °F 23.8 °F 29.76 in Calm     69 % 0.00 in 0.0 W/m2 CLR
19:54 32.8 °F 23.7 °F 29.76 in Calm     69 % 0.00 in 0.0 W/m2 CLR
19:59 32.8 °F 23.7 °F 29.76 in Calm     69 % 0.00 in 0.0 W/m2 CLR
20:04 32.7 °F 24.0 °F 29.76 in Calm     70 % 0.00 in 0.0 W/m2 CLR
20:09 32.6 °F 23.9 °F 29.76 in Calm     70 % 0.00 in 0.0 W/m2 CLR
20:14 32.5 °F 23.8 °F 29.76 in Calm     70 % 0.00 in 0.0 W/m2 CLR
20:19 32.5 °F 23.8 °F 29.76 in Calm     70 % 0.00 in 0.0 W/m2 CLR
20:24 32.6 °F 23.9 °F 29.76 in Calm     70 % 0.00 in 0.0 W/m2 CLR
20:34 32.5 °F 24.1 °F 29.76 in Calm     71 % 0.00 in 0.0 W/m2 CLR
20:45 32.4 °F 24.4 °F 29.76 in Calm     72 % 0.00 in 0.0 W/m2 CLR
20:50 32.3 °F 24.3 °F 29.76 in West 1.6 mph 2.3 mph 72 % 0.00 in 0.0 W/m2 CLR
20:55 32.2 °F 24.2 °F 29.76 in Calm     72 % 0.00 in 0.0 W/m2 CLR
21:00 32.2 °F 24.2 °F 29.76 in Calm     72 % 0.00 in 0.0 W/m2 CLR
21:05 32.3 °F 24.3 °F 29.76 in West 0.1 mph 1.2 mph 72 % 0.00 in 0.0 W/m2 CLR
21:10 32.2 °F 24.2 °F 29.76 in West 0.7 mph 2.3 mph 72 % 0.00 in 0.0 W/m2 CLR
21:15 32.2 °F 24.2 °F 29.76 in Calm     72 % 0.00 in 0.0 W/m2 CLR
21:20 32.2 °F 24.2 °F 29.76 in Calm     72 % 0.00 in 0.0 W/m2 CLR
21:25 32.2 °F 24.2 °F 29.76 in West 1.0 mph 3.0 mph 72 % 0.00 in 0.0 W/m2 CLR
21:30 32.0 °F 24.3 °F 29.77 in West 1.8 mph 3.5 mph 73 % 0.00 in 0.0 W/m2 CLR
21:35 31.8 °F 24.1 °F 29.77 in West 2.0 mph 3.5 mph 73 % 0.00 in 0.0 W/m2 CLR
21:40 31.8 °F 24.1 °F 29.77 in West 1.6 mph 3.5 mph 73 % 0.00 in 0.0 W/m2 CLR
21:45 31.8 °F 24.5 °F 29.77 in West 0.1 mph   74 % 0.00 in 0.0 W/m2 CLR
21:50 31.9 °F 24.6 °F 29.77 in West 1.2 mph 3.5 mph 74 % 0.00 in 0.0 W/m2 CLR
21:55 32.0 °F 24.6 °F 29.77 in West 0.2 mph 1.2 mph 74 % 0.00 in 0.0 W/m2 CLR
22:00 32.0 °F 24.3 °F 29.77 in Calm     73 % 0.00 in 0.0 W/m2 CLR
22:05 32.1 °F 24.4 °F 29.77 in Calm     73 % 0.00 in 0.0 W/m2 CLR
22:10 32.2 °F 24.8 °F 29.76 in Calm     74 % 0.00 in 0.0 W/m2 CLR
22:15 32.2 °F 24.5 °F 29.76 in Calm     73 % 0.00 in 0.0 W/m2 CLR
22:20 32.2 °F 24.8 °F 29.76 in Calm     74 % 0.00 in 0.0 W/m2 CLR
22:25 32.2 °F 24.8 °F 29.76 in Calm     74 % 0.00 in 0.0 W/m2 CLR
22:30 32.2 °F 24.5 °F 29.75 in Calm     73 % 0.00 in 0.0 W/m2 CLR
22:35 32.3 °F 24.6 °F 29.75 in Calm     73 % 0.00 in 0.0 W/m2 CLR
22:40 32.2 °F 24.5 °F 29.75 in Calm     73 % 0.00 in 0.0 W/m2 CLR
22:45 32.0 °F 24.3 °F 29.75 in Calm     73 % 0.00 in 0.0 W/m2 CLR
22:50 31.8 °F 24.1 °F 29.75 in Calm     73 % 0.00 in 0.0 W/m2 CLR
22:55 31.7 °F 24.4 °F 29.75 in Calm     74 % 0.00 in 0.0 W/m2 CLR
23:00 31.9 °F 24.6 °F 29.74 in Calm     74 % 0.00 in 0.0 W/m2 CLR
23:02 31.8 °F 24.5 °F 29.74 in Calm     74 % 0.00 in 0.0 W/m2 CLR
23:12 31.4 °F 24.1 °F 29.74 in Calm     74 % 0.00 in 0.0 W/m2 CLR
23:17 31.5 °F 24.2 °F 29.74 in Calm     74 % 0.00 in 0.0 W/m2 CLR
23:22 31.4 °F 24.4 °F 29.74 in Calm     75 % 0.00 in 0.0 W/m2 CLR
23:27 31.5 °F 24.5 °F 29.74 in Calm     75 % 0.00 in 0.0 W/m2 CLR
23:37 31.5 °F 24.5 °F 29.74 in Calm     75 % 0.00 in 0.0 W/m2 CLR
23:47 31.8 °F 24.8 °F 29.74 in Calm     75 % 0.00 in 0.0 W/m2 CLR
23:52 31.9 °F 24.9 °F 29.73 in Calm     75 % 0.00 in 0.0 W/m2 CLR
23:57 31.8 °F 24.5 °F 29.73 in Calm     74 % 0.00 in 0.0 W/m2 CLR
Air Products Campus Weather
Compliments of Weather Underground - 3.25 mb